Time;durP1;ratioP1;P1;durP2;ratioP2;P2;SDS_P1;SDS_P2;PMS_P1;PMS_P2;Temp;Humidity;BMP_temperature;BMP_pressure;BME280_temperature;BME280_humidity;BME280_pressure;Samples;Min_cycle;Max_cycle;Signal;HPM_P1;HPM_P2
2022/08/14 00:00:54;;;;;;;5.28;4.35;;;23.50;96.00;;;;;;5073851;28;20391;-58
2022/08/14 00:03:26;;;;;;;5.75;5.05;;;23.50;96.20;;;;;;5073898;28;20056;-58
2022/08/14 00:05:52;;;;;;;7.90;4.95;;;23.50;96.30;;;;;;5073887;28;20398;-58
2022/08/14 00:08:18;;;;;;;6.65;4.30;;;23.50;96.40;;;;;;5073758;28;20041;-59
2022/08/14 00:10:44;;;;;;;5.22;4.38;;;23.40;96.50;;;;;;5073810;28;20115;-58
2022/08/14 00:13:11;;;;;;;7.30;4.47;;;23.40;96.70;;;;;;5073784;28;20068;-58
2022/08/14 00:15:39;;;;;;;5.88;4.00;;;23.30;96.80;;;;;;5073722;28;20097;-58
2022/08/14 00:18:08;;;;;;;6.93;5.40;;;23.30;96.90;;;;;;5073748;28;20181;-58
2022/08/14 00:20:36;;;;;;;13.50;5.45;;;23.30;97.10;;;;;;5073809;28;20048;-58
2022/08/14 00:23:04;;;;;;;5.72;4.72;;;23.20;97.00;;;;;;5073768;28;20041;-58
2022/08/14 00:25:29;;;;;;;5.70;5.10;;;23.20;97.10;;;;;;5073460;28;20056;-58
2022/08/14 00:27:55;;;;;;;13.90;5.05;;;23.20;97.20;;;;;;5073578;28;20302;-58
2022/08/14 00:30:21;;;;;;;5.55;4.45;;;23.10;97.40;;;;;;5073490;28;20036;-58
2022/08/14 00:32:47;;;;;;;5.72;4.80;;;23.10;97.50;;;;;;5073637;28;20059;-58
2022/08/14 00:35:13;;;;;;;6.43;4.65;;;23.10;97.50;;;;;;5074378;28;20048;-58
2022/08/14 00:37:44;;;;;;;6.80;4.80;;;23.10;97.60;;;;;;5077738;28;20390;-58
2022/08/14 00:40:16;;;;;;;7.10;4.95;;;23.10;98.00;;;;;;5077681;28;20024;-57
2022/08/14 00:42:42;;;;;;;6.50;5.20;;;23.10;98.10;;;;;;5077287;28;20090;-58
2022/08/14 00:45:11;;;;;;;6.55;5.30;;;23.00;98.10;;;;;;5077585;28;20039;-58
2022/08/14 00:47:37;;;;;;;14.15;5.50;;;23.00;98.30;;;;;;5077393;28;20044;-57
2022/08/14 00:50:06;;;;;;;7.07;5.50;;;23.00;98.30;;;;;;5077374;28;20052;-58
2022/08/14 00:52:33;;;;;;;6.05;5.15;;;23.00;98.60;;;;;;5077451;28;20045;-59
2022/08/14 00:55:03;;;;;;;7.80;5.20;;;23.00;98.60;;;;;;5077380;28;20041;-58
2022/08/14 00:57:30;;;;;;;6.72;6.05;;;22.90;98.70;;;;;;5077347;28;20399;-58
2022/08/14 00:59:56;;;;;;;8.20;5.70;;;22.90;98.70;;;;;;5077196;28;20036;-58
2022/08/14 01:02:26;;;;;;;9.18;5.20;;;22.90;98.80;;;;;;5077543;28;20082;-59
2022/08/14 01:04:56;;;;;;;5.80;5.20;;;22.80;98.80;;;;;;5075840;28;20052;-58
2022/08/14 01:07:24;;;;;;;8.55;5.47;;;22.90;98.90;;;;;;5075900;28;20040;-58
2022/08/14 01:09:53;;;;;;;8.05;5.53;;;22.90;98.90;;;;;;5076897;28;20082;-57
2022/08/14 01:12:20;;;;;;;7.57;5.63;;;22.90;99.00;;;;;;5076804;28;20487;-58
2022/08/14 01:14:50;;;;;;;9.07;5.57;;;22.80;99.10;;;;;;5076908;28;20033;-59
2022/08/14 01:17:16;;;;;;;6.15;5.43;;;22.90;99.10;;;;;;5076945;28;20086;-58
2022/08/14 01:22:25;;;;;;;6.28;5.50;;;22.80;99.10;;;;;;5076466;28;20052;-58
2022/08/14 01:24:52;;;;;;;7.20;5.50;;;22.80;99.20;;;;;;5076531;28;20132;-58
2022/08/14 01:27:20;;;;;;;5.78;5.22;;;22.80;99.20;;;;;;5076745;28;20048;-58
2022/08/14 01:29:50;;;;;;;7.78;5.65;;;22.90;99.20;;;;;;5076775;28;20048;-57
2022/08/14 01:32:20;;;;;;;11.23;6.00;;;22.90;99.30;;;;;;5076698;28;20378;-58
2022/08/14 01:34:53;;;;;;;9.57;5.78;;;22.80;99.30;;;;;;5076403;28;20089;-58
2022/08/14 01:37:22;;;;;;;6.57;5.55;;;22.80;99.40;;;;;;5076620;28;20064;-58
2022/08/14 01:39:48;;;;;;;5.70;5.00;;;22.80;99.40;;;;;;5076579;28;20075;-58
2022/08/14 01:42:13;;;;;;;6.25;5.65;;;22.80;99.60;;;;;;5076501;28;20068;-58
2022/08/14 01:44:39;;;;;;;8.25;6.05;;;22.80;99.70;;;;;;5076473;28;20086;-58
2022/08/14 01:47:12;;;;;;;6.90;5.88;;;22.80;99.70;;;;;;5075731;28;20044;-58
2022/08/14 01:49:37;;;;;;;8.20;6.07;;;22.70;99.70;;;;;;5076337;28;20040;-58
2022/08/14 01:52:04;;;;;;;8.02;5.88;;;22.70;99.70;;;;;;5074876;28;20505;-58
2022/08/14 01:54:29;;;;;;;8.65;6.10;;;22.70;99.80;;;;;;5075209;28;20119;-58
2022/08/14 01:56:56;;;;;;;9.75;6.45;;;22.70;99.90;;;;;;5076024;28;20444;-58
2022/08/14 01:59:31;;;;;;;8.95;6.78;;;22.60;99.90;;;;;;5076101;28;20479;-57
2022/08/14 02:01:59;;;;;;;7.93;6.63;;;22.60;99.90;;;;;;5076100;28;20502;-58
2022/08/14 02:04:29;;;;;;;7.13;6.05;;;22.50;99.90;;;;;;5076495;28;20040;-57
2022/08/14 02:06:56;;;;;;;7.20;6.53;;;22.60;99.90;;;;;;5076008;28;20085;-58
2022/08/14 02:09:22;;;;;;;7.90;6.63;;;22.50;99.90;;;;;;5075955;28;20048;-57
2022/08/14 02:11:50;;;;;;;6.95;6.28;;;22.50;99.90;;;;;;5074803;28;20395;-57
2022/08/14 02:14:16;;;;;;;9.38;6.63;;;22.50;99.90;;;;;;5075835;28;20040;-58
2022/08/14 02:16:51;;;;;;;9.23;7.18;;;22.50;99.90;;;;;;5075744;28;20099;-58
2022/08/14 02:19:21;;;;;;;7.20;6.50;;;22.40;99.90;;;;;;5075871;28;20044;-58
2022/08/14 02:21:49;;;;;;;7.63;6.75;;;22.40;99.90;;;;;;5075591;28;20055;-58
2022/08/14 02:24:15;;;;;;;8.70;7.73;;;22.40;99.90;;;;;;5075572;28;20045;-58
2022/08/14 02:26:46;;;;;;;9.15;7.20;;;22.40;99.90;;;;;;5075376;28;20072;-58
2022/08/14 02:29:14;;;;;;;8.82;7.32;;;22.30;99.90;;;;;;5075469;28;20048;-58
2022/08/14 02:31:42;;;;;;;8.80;6.33;;;22.30;99.90;;;;;;5075457;28;20036;-58
2022/08/14 02:34:30;;;;;;;8.32;5.88;;;22.30;99.90;;;;;;5075595;28;20044;-58
2022/08/14 02:37:01;;;;;;;12.00;6.70;;;22.30;99.90;;;;;;5075443;28;20032;-59
2022/08/14 02:39:28;;;;;;;9.43;6.70;;;22.20;99.90;;;;;;5075101;28;20048;-58
2022/08/14 02:41:54;;;;;;;12.77;7.53;;;22.20;99.90;;;;;;5075122;28;20036;-58
2022/08/14 02:44:21;;;;;;;9.13;7.80;;;22.10;99.90;;;;;;5075268;28;20090;-58
2022/08/14 02:46:48;;;;;;;7.10;6.40;;;22.10;99.90;;;;;;5075176;28;20040;-58
2022/08/14 02:49:14;;;;;;;9.90;7.78;;;22.10;99.90;;;;;;5074841;28;20041;-58
2022/08/14 02:51:40;;;;;;;8.35;6.38;;;22.20;99.90;;;;;;5075177;28;20036;-58
2022/08/14 02:54:08;;;;;;;7.93;7.22;;;22.10;99.90;;;;;;5075044;28;20036;-58
2022/08/14 02:56:37;;;;;;;8.07;7.03;;;22.10;99.90;;;;;;5075017;28;20049;-58
2022/08/14 02:59:06;;;;;;;11.85;6.35;;;22.10;99.90;;;;;;5074101;28;20049;-58
2022/08/14 03:01:32;;;;;;;12.10;6.68;;;22.00;99.90;;;;;;5075037;28;20044;-58
2022/08/14 03:03:59;;;;;;;8.63;7.32;;;22.00;99.90;;;;;;5074709;28;20478;-58
2022/08/14 03:06:24;;;;;;;7.03;6.32;;;22.00;99.90;;;;;;5074788;28;20040;-58
2022/08/14 03:08:52;;;;;;;9.68;7.25;;;22.00;99.90;;;;;;5073279;28;20047;-58
2022/08/14 03:11:20;;;;;;;7.90;6.78;;;22.00;99.90;;;;;;5074716;28;20364;-58
2022/08/14 03:13:48;;;;;;;9.68;7.22;;;22.00;99.90;;;;;;5074796;28;20032;-58
2022/08/14 03:16:17;;;;;;;8.70;6.93;;;22.00;99.90;;;;;;5074657;28;20044;-58
2022/08/14 03:18:44;;;;;;;7.65;6.05;;;21.90;99.90;;;;;;5074521;28;20040;-58
2022/08/14 03:21:15;;;;;;;12.23;7.00;;;21.90;99.90;;;;;;5074466;28;20402;-58
2022/08/14 03:23:42;;;;;;;7.63;6.93;;;21.90;99.90;;;;;;5074647;28;20039;-58
2022/08/14 03:26:14;;;;;;;7.72;6.97;;;21.90;99.90;;;;;;5073213;28;20083;-58
2022/08/14 03:28:42;;;;;;;7.55;6.80;;;21.90;99.90;;;;;;5074405;28;20123;-58
2022/08/14 03:31:09;;;;;;;7.78;7.07;;;21.90;99.90;;;;;;5074180;28;20124;-58
2022/08/14 03:33:36;;;;;;;10.05;7.50;;;21.90;99.90;;;;;;5074315;28;20032;-58
2022/08/14 03:36:11;;;;;;;8.02;7.07;;;21.90;99.90;;;;;;5074046;28;20399;-58
2022/08/14 03:38:42;;;;;;;7.53;6.82;;;21.90;99.90;;;;;;5074302;28;20437;-58
2022/08/14 03:41:15;;;;;;;9.45;7.85;;;21.80;99.90;;;;;;5074228;28;20040;-58
2022/08/14 03:43:45;;;;;;;9.05;7.00;;;21.80;99.90;;;;;;5074106;28;20043;-58
2022/08/14 03:46:12;;;;;;;8.93;7.68;;;21.80;99.90;;;;;;5073868;28;20044;-58
2022/08/14 03:48:39;;;;;;;9.98;7.47;;;21.70;99.90;;;;;;5073868;28;20041;-58
2022/08/14 03:51:09;;;;;;;7.78;7.00;;;21.70;99.90;;;;;;5073989;28;20116;-58
2022/08/14 03:53:36;;;;;;;9.00;7.13;;;21.70;99.90;;;;;;5072915;28;20110;-58
2022/08/14 03:56:06;;;;;;;8.90;7.38;;;21.70;99.90;;;;;;5074082;28;20424;-58
2022/08/14 03:58:32;;;;;;;7.78;6.97;;;21.70;99.90;;;;;;5073932;28;20389;-58
2022/08/14 04:00:59;;;;;;;12.68;8.00;;;21.70;99.90;;;;;;5073982;28;20040;-59
2022/08/14 04:03:25;;;;;;;8.15;7.15;;;21.60;99.90;;;;;;5073944;28;20045;-58
2022/08/14 04:05:52;;;;;;;8.52;7.32;;;21.60;99.90;;;;;;5073796;28;20041;-58
2022/08/14 04:08:19;;;;;;;12.93;7.85;;;21.60;99.90;;;;;;5072653;28;20505;-58
2022/08/14 04:10:45;;;;;;;9.38;7.38;;;21.60;99.90;;;;;;5072373;28;20364;-58
2022/08/14 04:13:11;;;;;;;8.63;7.72;;;21.60;99.90;;;;;;5073749;28;20387;-58
2022/08/14 04:15:37;;;;;;;7.82;7.13;;;21.60;99.90;;;;;;5073550;28;20072;-59
2022/08/14 04:18:08;;;;;;;8.23;7.43;;;21.50;99.90;;;;;;5073814;28;20040;-59
2022/08/14 04:20:39;;;;;;;10.82;7.72;;;21.50;99.90;;;;;;5073714;28;20052;-58
2022/08/14 04:23:05;;;;;;;9.73;8.82;;;21.50;99.90;;;;;;5073623;28;20558;-58
2022/08/14 04:25:36;;;;;;;10.10;7.78;;;21.50;99.90;;;;;;5073392;28;20053;-58
2022/08/14 04:28:05;;;;;;;9.80;7.88;;;21.50;99.90;;;;;;5073604;28;20049;-57
2022/08/14 04:30:37;;;;;;;10.70;8.65;;;21.50;99.90;;;;;;5073617;28;20041;-58
2022/08/14 04:33:07;;;;;;;11.00;8.45;;;21.40;99.90;;;;;;5073660;28;20039;-58
2022/08/14 04:35:37;;;;;;;9.43;8.52;;;21.40;99.90;;;;;;5073218;28;20487;-58
2022/08/14 04:43:40;;;;;;;9.35;8.40;;;21.40;99.90;;;;;;5073441;28;20055;-59
2022/08/14 04:46:05;;;;;;;9.18;8.32;;;21.20;99.90;;;;;;5073476;28;20094;-59
2022/08/14 04:48:31;;;;;;;9.25;8.25;;;21.30;99.90;;;;;;5073324;28;20041;-59
2022/08/14 04:50:57;;;;;;;10.10;8.57;;;21.30;99.90;;;;;;5073448;28;20112;-59
2022/08/14 04:53:26;;;;;;;8.73;7.93;;;21.30;99.90;;;;;;5073431;28;20383;-58
2022/08/14 04:55:52;;;;;;;12.23;9.00;;;21.30;99.90;;;;;;5073708;28;20119;-59
2022/08/14 04:58:25;;;;;;;10.07;8.35;;;21.30;99.90;;;;;;5073285;28;20051;-59
2022/08/14 05:00:52;;;;;;;9.93;8.65;;;21.30;99.90;;;;;;5073378;28;20045;-58
2022/08/14 05:03:20;;;;;;;11.77;8.38;;;21.30;99.90;;;;;;5073080;28;20124;-59
2022/08/14 05:05:55;;;;;;;9.77;8.77;;;21.30;99.90;;;;;;5073345;28;20086;-58
2022/08/14 05:08:22;;;;;;;10.23;8.90;;;21.30;99.90;;;;;;5072868;28;20514;-59
2022/08/14 05:10:54;;;;;;;11.93;8.93;;;21.20;99.90;;;;;;5071938;28;20036;-58
2022/08/14 05:13:26;;;;;;;9.90;8.40;;;21.20;99.90;;;;;;5073291;28;20037;-59
2022/08/14 05:15:53;;;;;;;11.05;8.13;;;21.20;99.90;;;;;;5072972;28;20250;-59
2022/08/14 05:18:21;;;;;;;11.70;8.60;;;21.30;99.90;;;;;;5073259;28;20041;-58
2022/08/14 05:20:52;;;;;;;9.67;8.77;;;21.30;99.90;;;;;;5073098;28;20119;-59
2022/08/14 05:23:20;;;;;;;9.43;8.50;;;21.40;99.90;;;;;;5076841;28;20290;-60
2022/08/14 05:25:48;;;;;;;11.27;9.23;;;21.40;99.90;;;;;;5076452;28;20052;-59
2022/08/14 05:28:20;;;;;;;17.23;10.10;;;21.50;99.90;;;;;;5076659;28;20406;-59
2022/08/14 05:30:52;;;;;;;10.10;9.10;;;21.60;99.90;;;;;;5076634;28;20042;-59
2022/08/14 05:33:20;;;;;;;12.48;8.52;;;21.60;99.90;;;;;;5076715;28;20033;-58
2022/08/14 05:35:47;;;;;;;10.33;8.43;;;21.70;99.90;;;;;;5076665;28;20356;-57
2022/08/14 05:38:15;;;;;;;14.52;8.88;;;21.80;99.90;;;;;;5076635;28;20279;-58
2022/08/14 05:40:42;;;;;;;11.27;9.05;;;21.80;99.90;;;;;;5075941;28;20098;-58
2022/08/14 05:43:08;;;;;;;8.77;7.95;;;21.90;99.90;;;;;;5076408;28;20044;-58
2022/08/14 05:45:34;;;;;;;9.90;7.90;;;22.00;99.90;;;;;;5076523;28;20040;-58
2022/08/14 05:48:01;;;;;;;11.75;8.93;;;22.10;99.90;;;;;;5076170;28;20364;-59
2022/08/14 05:50:27;;;;;;;9.18;8.20;;;22.10;99.90;;;;;;5076222;28;20064;-58
2022/08/14 05:52:53;;;;;;;10.88;7.60;;;22.30;99.90;;;;;;5076305;28;20509;-58
2022/08/14 05:55:20;;;;;;;8.20;7.43;;;22.30;99.90;;;;;;5076208;28;20071;-58
2022/08/14 05:57:49;;;;;;;12.50;7.80;;;22.50;99.90;;;;;;5076158;28;20037;-58
2022/08/14 06:00:15;;;;;;;;;;;22.50;99.90;;;;;;5076597;28;20042;-58
2022/08/14 06:02:41;;;;;;;10.35;7.50;;;22.60;99.90;;;;;;5076453;28;20010;-58
2022/08/14 06:05:07;;;;;;;9.65;7.35;;;22.70;99.90;;;;;;5076084;28;20068;-58
2022/08/14 06:07:35;;;;;;;8.55;7.65;;;22.80;99.90;;;;;;5076152;28;20032;-58
2022/08/14 06:10:03;;;;;;;13.10;7.47;;;22.70;99.90;;;;;;5076448;28;20033;-58
2022/08/14 06:12:28;;;;;;;8.68;7.40;;;22.60;99.90;;;;;;5076022;28;20037;-57
2022/08/14 06:14:54;;;;;;;7.82;7.05;;;22.70;99.90;;;;;;5075869;28;20500;-58
2022/08/14 06:17:19;;;;;;;10.18;7.40;;;22.90;99.90;;;;;;5075870;28;20068;-58
2022/08/14 06:19:45;;;;;;;8.85;6.97;;;22.90;99.90;;;;;;5075853;28;20045;-57
2022/08/14 06:22:11;;;;;;;12.10;8.07;;;23.00;99.90;;;;;;5075681;28;20050;-58
2022/08/14 06:24:36;;;;;;;15.30;7.10;;;23.10;99.90;;;;;;5075474;28;20048;-59
2022/08/14 06:27:03;;;;;;;8.93;7.40;;;23.30;99.90;;;;;;5075692;28;20048;-59
2022/08/14 06:29:28;;;;;;;8.85;7.55;;;23.30;99.90;;;;;;5075521;28;20072;-59
2022/08/14 06:31:54;;;;;;;12.18;6.78;;;23.40;99.90;;;;;;5075510;28;20420;-59
2022/08/14 06:34:20;;;;;;;6.93;6.30;;;23.50;99.90;;;;;;5075470;28;20040;-59
2022/08/14 06:36:45;;;;;;;10.32;7.53;;;23.70;99.90;;;;;;5075442;28;20033;-59
2022/08/14 06:39:11;;;;;;;9.32;6.57;;;23.90;99.90;;;;;;5075911;28;20368;-59
2022/08/14 06:41:39;;;;;;;9.27;7.05;;;24.00;99.90;;;;;;5075342;28;20068;-59
2022/08/14 06:44:04;;;;;;;7.00;6.30;;;24.20;99.90;;;;;;5075337;28;20037;-58
2022/08/14 06:46:30;;;;;;;10.05;6.47;;;24.40;99.90;;;;;;5075131;28;20136;-59
2022/08/14 06:48:55;;;;;;;9.00;6.82;;;24.60;99.90;;;;;;5075182;28;20044;-58
2022/08/14 06:51:21;;;;;;;9.50;7.40;;;24.70;99.90;;;;;;5075229;28;20060;-59
2022/08/14 06:53:47;;;;;;;7.90;6.72;;;24.80;99.90;;;;;;5075077;28;20395;-59
2022/08/14 06:56:13;;;;;;;8.35;6.95;;;25.00;99.90;;;;;;5075108;28;20040;-59
2022/08/14 06:58:38;;;;;;;10.48;8.48;;;25.10;99.90;;;;;;5074962;28;20039;-58
2022/08/14 07:06:33;;;;;;;13.10;8.02;;;25.20;99.90;;;;;;5074906;28;20402;-59
2022/08/14 07:08:58;;;;;;;13.23;6.35;;;25.20;99.90;;;;;;5074793;28;20044;-59
2022/08/14 07:11:24;;;;;;;11.73;7.72;;;25.60;99.90;;;;;;5074844;28;20040;-58
2022/08/14 07:13:50;;;;;;;8.02;7.20;;;25.70;99.90;;;;;;5073090;28;20055;-58
2022/08/14 07:16:15;;;;;;;9.32;6.88;;;25.70;99.80;;;;;;5074534;28;20068;-57
2022/08/14 07:18:41;;;;;;;6.90;6.30;;;26.10;99.60;;;;;;5074732;28;20423;-57
2022/08/14 07:21:07;;;;;;;11.27;6.25;;;26.80;99.10;;;;;;5073858;28;20464;-55
2022/08/14 07:23:34;;;;;;;16.15;7.53;;;27.10;98.50;;;;;;5073350;28;20048;-57
2022/08/14 07:26:01;;;;;;;7.15;6.50;;;27.30;97.60;;;;;;5074478;28;20115;-58
2022/08/14 07:28:32;;;;;;;7.10;6.40;;;27.60;97.70;;;;;;5074385;28;20050;-57
2022/08/14 07:31:00;;;;;;;6.57;6.05;;;27.90;97.30;;;;;;5074421;28;20040;-57
2022/08/14 07:33:28;;;;;;;6.55;5.88;;;28.30;97.20;;;;;;5074136;28;20154;-57
2022/08/14 07:35:54;;;;;;;;;;;28.50;96.30;;;;;;5074870;28;20067;-57
2022/08/14 07:38:22;;;;;;;7.93;6.43;;;28.30;95.90;;;;;;5074232;28;20003;-57
2022/08/14 07:40:49;;;;;;;8.95;5.78;;;28.50;96.10;;;;;;5074306;28;20094;-57
2022/08/14 07:43:15;;;;;;;7.18;6.15;;;28.80;95.40;;;;;;5074104;28;20075;-57
2022/08/14 07:45:41;;;;;;;6.38;5.65;;;28.90;95.90;;;;;;5073452;28;20074;-58
2022/08/14 07:48:07;;;;;;;6.40;5.63;;;29.20;95.40;;;;;;5074133;28;20454;-58
2022/08/14 07:50:33;;;;;;;6.95;6.22;;;29.30;95.60;;;;;;5074108;28;20064;-57
2022/08/14 07:52:59;;;;;;;8.32;6.20;;;29.30;94.80;;;;;;5074094;28;20040;-57
2022/08/14 07:55:25;;;;;;;6.18;5.57;;;29.40;94.90;;;;;;5074111;28;20039;-57
2022/08/14 07:57:51;;;;;;;7.47;6.07;;;29.60;94.70;;;;;;5074530;28;20143;-58
2022/08/14 08:00:22;;;;;;;9.77;5.72;;;29.30;94.60;;;;;;5073964;28;20157;-58
2022/08/14 08:02:51;;;;;;;8.93;4.80;;;29.60;94.40;;;;;;5073956;28;20067;-57
2022/08/14 08:05:18;;;;;;;7.82;5.20;;;29.90;94.80;;;;;;5073981;28;20036;-57
2022/08/14 08:07:45;;;;;;;6.10;5.57;;;30.00;94.60;;;;;;5073713;28;20040;-56
2022/08/14 08:10:30;;;;;;;10.43;4.70;;;29.90;94.40;;;;;;5073574;28;20848;-58
2022/08/14 08:12:57;;;;;;;7.53;4.78;;;30.30;94.50;;;;;;5073915;28;20048;-57
2022/08/14 08:15:24;;;;;;;8.85;5.05;;;30.40;93.60;;;;;;5073660;28;20479;-57
2022/08/14 08:17:50;;;;;;;5.05;4.50;;;30.60;94.20;;;;;;5074101;28;20032;-58
2022/08/14 08:20:19;;;;;;;8.32;4.57;;;30.90;94.00;;;;;;5072704;28;20072;-59
2022/08/14 08:22:46;;;;;;;5.28;4.60;;;31.10;94.00;;;;;;5073832;28;20364;-57
2022/08/14 08:25:12;;;;;;;5.10;4.40;;;31.40;93.30;;;;;;5072100;28;20057;-56
2022/08/14 08:27:39;;;;;;;7.50;4.97;;;31.50;93.00;;;;;;5073513;28;20372;-57
2022/08/14 08:30:08;;;;;;;6.47;4.55;;;31.10;93.20;;;;;;5073664;28;20041;-57
2022/08/14 08:32:41;;;;;;;5.95;4.55;;;31.40;93.30;;;;;;5071792;28;20049;-57
2022/08/14 08:35:19;;;;;;;5.65;4.88;;;31.60;93.10;;;;;;5073650;28;20033;-56
2022/08/14 08:37:47;;;;;;;6.40;4.68;;;31.60;93.00;;;;;;5073615;28;20042;-57
2022/08/14 08:40:30;;;;;;;7.35;4.70;;;31.50;92.90;;;;;;5073402;28;20475;-57
2022/08/14 08:42:56;;;;;;;5.97;4.53;;;31.70;92.50;;;;;;5073336;28;20550;-57
2022/08/14 08:45:22;;;;;;;9.82;4.30;;;32.00;92.60;;;;;;5072112;28;20052;-57
2022/08/14 08:47:49;;;;;;;6.28;3.95;;;32.20;92.40;;;;;;5073462;28;20425;-57
2022/08/14 08:50:26;;;;;;;5.77;4.97;;;32.20;92.30;;;;;;5073257;28;20387;-57
2022/08/14 08:52:53;;;;;;;4.65;4.25;;;31.90;90.90;;;;;;5073274;28;20116;-56
2022/08/14 08:55:28;;;;;;;6.25;3.78;;;31.60;92.00;;;;;;5073443;28;20043;-57
2022/08/14 08:57:56;;;;;;;7.20;4.03;;;32.10;91.90;;;;;;5076685;28;20066;-57
2022/08/14 09:00:22;;;;;;;8.90;4.07;;;32.10;91.90;;;;;;5077368;28;20359;-57
2022/08/14 09:03:16;;;;;;;7.90;3.90;;;32.40;91.70;;;;;;5077230;28;20062;-57
2022/08/14 09:05:56;;;;;;;5.35;3.90;;;32.60;90.70;;;;;;5075716;28;20067;-57
2022/08/14 09:08:27;;;;;;;7.05;4.18;;;31.90;90.80;;;;;;5076784;28;20414;-57
2022/08/14 09:10:55;;;;;;;4.82;4.18;;;32.30;90.90;;;;;;5077044;28;20040;-57
2022/08/14 09:13:25;;;;;;;4.93;4.45;;;32.40;91.10;;;;;;5077071;28;20036;-57
2022/08/14 09:15:52;;;;;;;5.20;4.43;;;32.60;90.80;;;;;;5076949;28;20120;-57
2022/08/14 09:18:20;;;;;;;11.25;5.47;;;32.80;90.90;;;;;;5076785;28;20047;-57
2022/08/14 09:20:50;;;;;;;6.28;4.00;;;33.10;90.80;;;;;;5076892;28;20045;-58
2022/08/14 09:23:16;;;;;;;8.15;3.60;;;33.50;90.60;;;;;;5076961;28;20442;-57
2022/08/14 09:25:44;;;;;;;4.20;3.80;;;33.40;90.30;;;;;;5076521;28;20088;-57
2022/08/14 09:28:12;;;;;;;5.68;3.95;;;33.90;90.00;;;;;;5076645;28;20041;-58
2022/08/14 09:30:44;;;;;;;5.85;3.70;;;33.60;88.50;;;;;;5076786;28;20043;-58
2022/08/14 09:33:28;;;;;;;5.03;3.83;;;33.50;88.40;;;;;;5076845;28;20043;-58
2022/08/14 09:36:28;;;;;;;4.22;3.83;;;33.20;88.10;;;;;;5076567;28;20432;-57
2022/08/14 09:39:10;;;;;;;6.60;3.65;;;34.30;88.10;;;;;;5076633;28;20139;-58
2022/08/14 09:41:58;;;;;;;4.38;3.50;;;34.60;87.80;;;;;;5075275;28;20052;-58
2022/08/14 09:44:46;;;;;;;3.72;3.30;;;35.40;87.90;;;;;;5076184;28;20048;-57
2022/08/14 09:47:15;;;;;;;4.72;3.50;;;35.40;86.30;;;;;;5076417;28;20127;-58
2022/08/14 09:49:42;;;;;;;5.65;3.67;;;36.10;87.70;;;;;;5076385;28;20043;-57
2022/08/14 09:52:15;;;;;;;5.95;3.25;;;36.20;86.60;;;;;;5076185;28;20029;-58
2022/08/14 09:54:46;;;;;;;6.18;3.92;;;36.20;85.10;;;;;;5076028;28;20040;-58
2022/08/14 09:57:24;;;;;;;4.78;3.90;;;35.70;86.50;;;;;;5076357;28;20078;-59
2022/08/14 09:59:51;;;;;;;3.97;3.67;;;35.70;84.80;;;;;;5076197;28;20036;-58
2022/08/14 10:02:31;;;;;;;7.35;3.88;;;35.50;86.20;;;;;;5076016;28;20043;-57
2022/08/14 10:05:05;;;;;;;5.55;3.85;;;36.00;85.20;;;;;;5076127;28;20098;-57
2022/08/14 10:07:33;;;;;;;4.82;3.47;;;36.20;84.30;;;;;;5075639;28;20054;-56
2022/08/14 10:10:00;;;;;;;9.63;3.92;;;36.00;86.60;;;;;;5076018;28;20040;-57
2022/08/14 10:12:47;;;;;;;3.80;3.40;;;36.60;84.50;;;;;;5073608;28;20055;-58
2022/08/14 10:15:21;;;;;;;4.78;3.80;;;37.30;84.20;;;;;;5075343;28;20112;-58
2022/08/14 10:17:48;;;;;;;4.07;3.72;;;37.10;82.90;;;;;;5072909;28;20041;-57
2022/08/14 10:20:21;;;;;;;4.40;4.00;;;37.10;83.70;;;;;;5075531;28;20523;-58
2022/08/14 10:22:50;;;;;;;7.05;3.58;;;36.50;82.60;;;;;;5073485;28;20059;-58
2022/08/14 10:25:16;;;;;;;4.03;3.20;;;36.90;83.80;;;;;;5072978;28;20053;-58
2022/08/14 10:27:45;;;;;;;5.35;3.13;;;37.70;84.10;;;;;;5075043;28;20036;-58
2022/08/14 10:30:19;;;;;;;4.05;3.13;;;37.90;83.20;;;;;;5072217;28;20066;-59
2022/08/14 10:32:47;;;;;;;5.18;3.10;;;37.80;82.60;;;;;;5075205;28;20040;-58
2022/08/14 10:35:15;;;;;;;5.03;2.70;;;38.10;81.80;;;;;;5071158;28;20032;-58
2022/08/14 10:37:51;;;;;;;3.33;3.03;;;37.90;79.50;;;;;;5074612;28;20032;-58
2022/08/14 10:40:30;;;;;;;5.13;2.80;;;38.00;79.90;;;;;;5072787;28;20074;-58
2022/08/14 10:42:57;;;;;;;7.18;3.33;;;38.60;80.40;;;;;;5072001;28;20416;-58
2022/08/14 10:45:32;;;;;;;4.10;3.35;;;38.00;80.10;;;;;;5073031;28;20067;-58
2022/08/14 10:47:58;;;;;;;3.40;3.20;;;38.60;80.70;;;;;;5071582;28;20110;-57
2022/08/14 10:50:35;;;;;;;5.95;3.13;;;38.90;81.20;;;;;;5073762;28;20040;-58
2022/08/14 10:53:04;;;;;;;4.07;3.07;;;38.70;79.70;;;;;;5075724;28;20036;-57
2022/08/14 10:55:40;;;;;;;5.47;2.80;;;38.40;80.50;;;;;;5075320;28;20064;-58
2022/08/14 10:58:11;;;;;;;4.10;3.53;;;39.60;79.70;;;;;;5075139;28;20048;-58
2022/08/14 11:00:39;;;;;;;4.03;3.10;;;39.50;79.10;;;;;;5075389;28;20057;-58
2022/08/14 11:03:12;;;;;;;3.65;2.78;;;40.20;80.00;;;;;;5075325;28;20048;-57
2022/08/14 11:05:43;;;;;;;4.40;3.45;;;40.80;79.30;;;;;;5074219;28;20374;-58
2022/08/14 11:08:13;;;;;;;3.85;3.10;;;39.80;77.60;;;;;;5073384;28;20040;-57
2022/08/14 11:10:40;;;;;;;5.00;3.03;;;40.40;77.80;;;;;;5070743;28;20475;-58
2022/08/14 11:13:08;;;;;;;3.70;3.33;;;41.10;78.80;;;;;;5070177;28;20036;-57
2022/08/14 11:15:34;;;;;;;3.80;3.13;;;39.80;76.90;;;;;;5074805;28;20067;-58
2022/08/14 11:18:01;;;;;;;3.67;3.08;;;40.70;78.30;;;;;;5074767;28;20107;-57
2022/08/14 11:20:29;;;;;;;3.47;3.17;;;41.00;77.60;;;;;;5073528;28;20045;-57
2022/08/14 11:22:59;;;;;;;5.28;4.03;;;40.90;77.00;;;;;;5074447;28;20047;-58
2022/08/14 11:25:30;;;;;;;3.55;3.17;;;40.70;76.90;;;;;;5069299;28;20057;-57
2022/08/14 11:27:57;;;;;;;3.28;2.92;;;40.70;76.80;;;;;;5062210;28;20037;-61
2022/08/14 11:30:24;;;;;;;;;;;41.40;79.00;;;;;;5069105;28;20036;-62
2022/08/14 11:32:50;;;;;;;5.03;3.58;;;40.60;75.80;;;;;;5057623;28;19951;-61
2022/08/14 11:35:21;;;;;;;4.80;3.50;;;40.90;75.70;;;;;;5069194;28;20032;-62
2022/08/14 11:37:52;;;;;;;4.03;3.10;;;40.50;75.20;;;;;;5063823;28;20032;-61
2022/08/14 11:40:22;;;;;;;3.85;3.45;;;40.30;76.00;;;;;;5066414;28;20033;-56
2022/08/14 11:42:49;;;;;;;7.15;3.45;;;40.40;75.80;;;;;;5067623;28;20107;-61
2022/08/14 11:45:15;;;;;;;4.35;3.60;;;41.00;76.10;;;;;;5070110;28;20040;-60
2022/08/14 11:48:53;;;;;;;4.72;4.15;;;40.90;75.90;;;;;;5093169;27;20415;-62
2022/08/14 11:51:24;;;;;;;5.07;3.22;;;42.00;76.30;;;;;;5088269;28;20087;-57
2022/08/14 11:53:56;;;;;;;5.25;3.15;;;41.30;76.20;;;;;;5090728;28;20120;-58
2022/08/14 11:56:22;;;;;;;3.85;3.55;;;41.70;74.70;;;;;;5089806;28;20028;-58
2022/08/14 11:58:53;;;;;;;4.07;3.33;;;42.10;74.40;;;;;;5091360;28;20062;-57
2022/08/14 12:01:32;;;;;;;3.55;3.20;;;41.30;74.00;;;;;;5091564;28;20101;-58
2022/08/14 12:04:10;;;;;;;3.75;3.40;;;40.70;74.20;;;;;;5089300;28;20075;-58
2022/08/14 12:06:51;;;;;;;4.28;3.58;;;41.40;75.00;;;;;;5088130;28;20446;-57
2022/08/14 12:09:31;;;;;;;3.60;3.28;;;41.60;74.00;;;;;;5116001;27;20043;-61
2022/08/14 12:11:58;;;;;;;4.30;3.70;;;41.70;74.70;;;;;;5109139;28;20033;-61
2022/08/14 12:14:24;;;;;;;11.02;8.50;;;41.20;73.10;;;;;;5071099;28;20488;-61
2022/08/14 12:17:10;;;;;;;5.05;3.53;;;42.00;75.10;;;;;;5079361;28;20121;-60
2022/08/14 12:19:54;;;;;;;3.60;3.30;;;42.00;72.90;;;;;;5089038;28;20471;-60
2022/08/14 12:22:36;;;;;;;4.82;3.50;;;42.20;73.80;;;;;;5091911;28;20033;-60
2022/08/14 12:25:04;;;;;;;4.15;3.75;;;42.40;74.60;;;;;;5087712;28;20043;-61
2022/08/14 12:27:34;;;;;;;4.00;3.40;;;42.30;73.30;;;;;;5089627;28;20419;-61
2022/08/14 12:30:00;;;;;;;5.00;3.90;;;42.40;73.00;;;;;;5089925;28;20059;-60
2022/08/14 12:32:26;;;;;;;4.70;3.40;;;42.80;74.50;;;;;;5090215;28;20467;-61
2022/08/14 12:34:54;;;;;;;3.92;3.63;;;43.00;73.10;;;;;;5090328;28;20061;-61
2022/08/14 12:37:29;;;;;;;4.55;3.30;;;41.60;72.20;;;;;;5089243;28;20045;-61
2022/08/14 12:40:06;;;;;;;7.93;3.53;;;42.20;72.40;;;;;;5090289;28;20044;-61
2022/08/14 12:42:36;;;;;;;5.90;3.50;;;42.10;72.10;;;;;;5090346;28;20037;-61
2022/08/14 12:45:02;;;;;;;4.75;3.70;;;42.20;72.90;;;;;;5090373;28;20270;-61
2022/08/14 12:47:30;;;;;;;5.43;3.60;;;41.70;72.60;;;;;;5090013;28;20060;-62
2022/08/14 12:49:56;;;;;;;5.55;3.70;;;41.90;72.90;;;;;;5090241;28;20094;-61
2022/08/14 12:52:42;;;;;;;4.63;3.70;;;41.70;71.80;;;;;;5090285;28;20036;-61
2022/08/14 12:55:16;;;;;;;6.10;3.45;;;41.60;72.70;;;;;;5088806;28;20036;-61
2022/08/14 12:57:46;;;;;;;4.22;3.83;;;41.20;72.80;;;;;;5090218;28;20044;-63
2022/08/14 13:00:16;;;;;;;3.53;3.22;;;41.70;72.50;;;;;;5076656;28;20061;-62
2022/08/14 13:02:43;;;;;;;6.15;3.40;;;41.80;72.50;;;;;;5076496;28;20435;-62
2022/08/14 13:05:11;;;;;;;;;;;42.00;72.10;;;;;;5076745;28;20467;-61
2022/08/14 13:07:39;;;;;;;8.07;4.05;;;41.70;73.30;;;;;;5076258;28;19926;-62
2022/08/14 13:10:07;;;;;;;4.38;3.75;;;41.30;73.80;;;;;;5076431;28;20037;-62